Date,TemperatureHighF,TemperatureAvgF,TemperatureLowF,DewpointHighF,DewpointAvgF,DewpointLowF,HumidityHigh,HumidityAvg,HumidityLow,PressureMaxIn,PressureMinIn,WindSpeedMaxMPH,WindSpeedAvgMPH,GustSpeedMaxMPH,PrecipitationSumIn
2013-4-1,27,11,0,46,28,4,75,27,39,30.01,29.76,14,1,43,0.01
2013-4-2,32,14,0,46,28,1,54,21,27,30.20,29.99,19,2,35,0.00
2013-4-3,41,17,0,46,30,5,62,23,22,30.36,30.02,15,1,30,0.00
2013-4-4,46,18,0,46,37,21,62,23,37,30.02,29.81,19,1,40,0.00
2013-4-5,34,14,0,46,32,12,57,23,46,30.22,30.00,15,1,26,0.00
2013-4-6,39,11,0,46,40,26,86,26,73,30.12,29.47,11,0,35,0.11
2013-4-7,37,15,0,46,39,27,86,31,68,29.94,29.44,14,1,30,0.00
2013-4-8,35,14,0,46,40,30,95,38,87,29.97,29.80,0,0,6,0.25
2013-4-9,37,14,0,46,39,23,95,36,69,30.16,29.97,16,2,33,0.00
2013-4-10,38,16,0,46,36,20,70,28,52,30.18,30.07,16,2,23,0.00
2013-4-11,34,15,0,46,35,19,70,29,60,30.11,29.84,18,2,29,0.00
2013-4-12,32,13,0,46,38,26,94,40,90,29.82,29.63,15,1,23,0.15
2013-4-13,33,15,0,46,37,22,89,39,65,29.85,29.63,19,2,27,0.18
2013-4-14,40,16,0,46,39,25,79,32,65,29.97,29.82,13,0,18,0.03
2013-4-15,57,22,0,46,39,20,92,26,30,29.82,29.51,41,2,60,0.28
2013-4-16,45,21,0,46,37,26,66,31,47,30.29,29.74,23,3,38,0.00
2013-4-17,38,16,0,46,39,29,83,34,76,30.39,30.02,11,0,14,0.00
2013-4-18,37,13,0,46,42,34,96,34,95,30.02,29.28,13,0,19,0.16
2013-4-19,37,14,0,46,37,18,95,39,72,29.69,28.98,62,4,71,0.14
2013-4-20,31,14,0,46,29,11,75,30,45,30.38,29.69,16,2,32,0.08
2013-4-21,46,20,0,46,32,9,71,23,28,30.44,30.14,37,2,58,0.00
2013-4-22,43,16,0,46,41,32,91,34,73,30.17,30.05,9,0,23,0.22
2013-4-23,37,16,0,46,39,27,93,38,73,30.10,29.79,19,1,31,0.04
2013-4-24,42,20,0,46,35,20,73,28,43,29.92,29.82,6,0,12,0.02
2013-4-25,46,21,0,46,37,21,92,30,38,30.13,29.78,17,1,28,0.28
2013-4-26,60,26,0,46,40,25,81,30,39,30.14,29.97,26,1,46,0.04
2013-4-27,68,29,0,48,43,34,88,32,48,30.08,29.88,4,0,15,0.00
2013-4-28,72,35,0,46,42,33,71,20,28,29.89,29.65,19,2,48,0.00
2013-4-29,62,27,0,52,47,41,93,36,64,29.72,29.64,6,0,10,0.00
2013-4-30,71,22,0,56,49,46,82,20,55,29.75,29.49,31,2,65,0.00